sensor_id;sensor_type;location;lat;lon;timestamp;temperature;humidity
37786;DHT22;23625;48.784;9.336;2023-03-01T00:02:19;-2.40;99.90
37786;DHT22;23625;48.784;9.336;2023-03-01T00:04:45;-2.40;99.90
37786;DHT22;23625;48.784;9.336;2023-03-01T00:07:10;-2.40;99.90
37786;DHT22;23625;48.784;9.336;2023-03-01T00:09:36;-2.40;99.90
37786;DHT22;23625;48.784;9.336;2023-03-01T00:12:03;-2.40;99.90
37786;DHT22;23625;48.784;9.336;2023-03-01T00:14:28;-2.50;99.90
37786;DHT22;23625;48.784;9.336;2023-03-01T00:16:54;-2.50;99.90
37786;DHT22;23625;48.784;9.336;2023-03-01T00:19:20;-2.50;99.90
37786;DHT22;23625;48.784;9.336;2023-03-01T00:21:47;-2.50;99.90
37786;DHT22;23625;48.784;9.336;2023-03-01T00:24:13;-2.50;99.90
37786;DHT22;23625;48.784;9.336;2023-03-01T00:26:39;-2.60;99.90
37786;DHT22;23625;48.784;9.336;2023-03-01T00:29:04;-2.60;99.90
37786;DHT22;23625;48.784;9.336;2023-03-01T00:31:32;-2.60;99.90
37786;DHT22;23625;48.784;9.336;2023-03-01T00:34:00;-2.60;99.90
37786;DHT22;23625;48.784;9.336;2023-03-01T00:36:29;-2.70;99.90
37786;DHT22;23625;48.784;9.336;2023-03-01T00:38:56;-2.80;99.90
37786;DHT22;23625;48.784;9.336;2023-03-01T00:41:22;-2.80;99.90
37786;DHT22;23625;48.784;9.336;2023-03-01T00:43:49;-2.90;99.90
37786;DHT22;23625;48.784;9.336;2023-03-01T00:46:20;-2.80;99.90
37786;DHT22;23625;48.784;9.336;2023-03-01T00:48:46;-2.80;99.90
37786;DHT22;23625;48.784;9.336;2023-03-01T00:51:17;-3.00;99.90
37786;DHT22;23625;48.784;9.336;2023-03-01T00:53:43;-3.10;99.90
37786;DHT22;23625;48.784;9.336;2023-03-01T00:56:10;-3.00;99.90
37786;DHT22;23625;48.784;9.336;2023-03-01T00:58:36;-3.00;99.90
37786;DHT22;23625;48.784;9.336;2023-03-01T01:01:15;-3.10;99.90
37786;DHT22;23625;48.784;9.336;2023-03-01T01:04:01;-3.10;99.90
37786;DHT22;23625;48.784;9.336;2023-03-01T01:06:30;-3.10;99.90
37786;DHT22;23625;48.784;9.336;2023-03-01T01:08:56;-3.10;99.90
37786;DHT22;23625;48.784;9.336;2023-03-01T01:11:26;-3.20;99.90
37786;DHT22;23625;48.784;9.336;2023-03-01T01:13:52;-3.20;99.90
37786;DHT22;23625;48.784;9.336;2023-03-01T01:16:21;-3.20;99.90
37786;DHT22;23625;48.784;9.336;2023-03-01T01:18:47;-3.20;99.90
37786;DHT22;23625;48.784;9.336;2023-03-01T01:21:15;-3.20;99.90
37786;DHT22;23625;48.784;9.336;2023-03-01T01:23:43;-3.30;99.90
37786;DHT22;23625;48.784;9.336;2023-03-01T01:26:23;-3.30;99.90
37786;DHT22;23625;48.784;9.336;2023-03-01T01:28:50;-3.40;99.90
37786;DHT22;23625;48.784;9.336;2023-03-01T01:31:17;-3.40;99.90
37786;DHT22;23625;48.784;9.336;2023-03-01T01:33:43;-3.40;99.90
37786;DHT22;23625;48.784;9.336;2023-03-01T01:36:09;-3.30;99.90
37786;DHT22;23625;48.784;9.336;2023-03-01T01:38:35;-3.40;99.90
37786;DHT22;23625;48.784;9.336;2023-03-01T01:41:01;-3.40;99.90
37786;DHT22;23625;48.784;9.336;2023-03-01T01:43:28;-3.40;99.90
37786;DHT22;23625;48.784;9.336;2023-03-01T01:46:02;-3.40;99.90
37786;DHT22;23625;48.784;9.336;2023-03-01T01:48:37;-3.40;99.90
37786;DHT22;23625;48.784;9.336;2023-03-01T01:51:07;-3.30;99.90
37786;DHT22;23625;48.784;9.336;2023-03-01T01:53:35;-3.20;99.90
37786;DHT22;23625;48.784;9.336;2023-03-01T01:56:02;-3.20;99.90
37786;DHT22;23625;48.784;9.336;2023-03-01T01:58:29;-3.20;99.90
37786;DHT22;23625;48.784;9.336;2023-03-01T02:00:55;-3.10;99.90
37786;DHT22;23625;48.784;9.336;2023-03-01T02:03:27;-3.10;99.90
37786;DHT22;23625;48.784;9.336;2023-03-01T02:06:04;-3.10;99.90
37786;DHT22;23625;48.784;9.336;2023-03-01T02:08:33;-3.00;99.90
37786;DHT22;23625;48.784;9.336;2023-03-01T02:11:01;-3.00;99.90
37786;DHT22;23625;48.784;9.336;2023-03-01T02:13:31;-2.90;99.90
37786;DHT22;23625;48.784;9.336;2023-03-01T02:15:57;-2.80;99.90
37786;DHT22;23625;48.784;9.336;2023-03-01T02:18:23;-2.80;99.90
37786;DHT22;23625;48.784;9.336;2023-03-01T02:20:56;-2.70;99.90
37786;DHT22;23625;48.784;9.336;2023-03-01T02:23:25;-2.60;99.90
37786;DHT22;23625;48.784;9.336;2023-03-01T02:26:15;-2.60;99.90
37786;DHT22;23625;48.784;9.336;2023-03-01T02:28:43;-2.50;99.90
37786;DHT22;23625;48.784;9.336;2023-03-01T02:31:11;-2.50;99.90
37786;DHT22;23625;48.784;9.336;2023-03-01T02:33:58;-2.50;99.90
37786;DHT22;23625;48.784;9.336;2023-03-01T02:36:30;-2.40;99.90
37786;DHT22;23625;48.784;9.336;2023-03-01T02:38:58;-2.40;99.90
37786;DHT22;23625;48.784;9.336;2023-03-01T02:41:25;-2.20;99.90
37786;DHT22;23625;48.784;9.336;2023-03-01T02:43:51;-2.20;99.90
37786;DHT22;23625;48.784;9.336;2023-03-01T02:46:20;-2.20;99.90
37786;DHT22;23625;48.784;9.336;2023-03-01T02:48:51;-2.20;99.90
37786;DHT22;23625;48.784;9.336;2023-03-01T02:51:42;-2.10;99.90
37786;DHT22;23625;48.784;9.336;2023-03-01T02:54:23;-2.10;99.90
37786;DHT22;23625;48.784;9.336;2023-03-01T02:56:50;-2.10;99.90
37786;DHT22;23625;48.784;9.336;2023-03-01T02:59:19;-2.10;99.90
37786;DHT22;23625;48.784;9.336;2023-03-01T03:01:45;-2.00;99.90
37786;DHT22;23625;48.784;9.336;2023-03-01T03:04:14;-2.00;99.90
37786;DHT22;23625;48.784;9.336;2023-03-01T03:06:50;-2.00;99.90
37786;DHT22;23625;48.784;9.336;2023-03-01T03:09:17;-2.00;99.90
37786;DHT22;23625;48.784;9.336;2023-03-01T03:11:43;-2.00;99.90
37786;DHT22;23625;48.784;9.336;2023-03-01T03:14:14;-1.90;99.90
37786;DHT22;23625;48.784;9.336;2023-03-01T03:16:42;-1.90;99.90
37786;DHT22;23625;48.784;9.336;2023-03-01T03:19:07;-1.90;99.90
37786;DHT22;23625;48.784;9.336;2023-03-01T03:21:33;-1.90;99.90
37786;DHT22;23625;48.784;9.336;2023-03-01T03:23:59;-1.80;99.90
37786;DHT22;23625;48.784;9.336;2023-03-01T03:26:25;-1.80;99.90
37786;DHT22;23625;48.784;9.336;2023-03-01T03:28:51;-1.80;99.90
37786;DHT22;23625;48.784;9.336;2023-03-01T03:31:16;-1.70;99.90
37786;DHT22;23625;48.784;9.336;2023-03-01T03:33:42;-1.70;99.90
37786;DHT22;23625;48.784;9.336;2023-03-01T03:36:08;-1.70;99.90
37786;DHT22;23625;48.784;9.336;2023-03-01T03:38:38;-1.70;99.90
37786;DHT22;23625;48.784;9.336;2023-03-01T03:41:07;-1.70;99.90
37786;DHT22;23625;48.784;9.336;2023-03-01T03:43:35;-1.60;99.90
37786;DHT22;23625;48.784;9.336;2023-03-01T03:46:02;-1.60;99.90
37786;DHT22;23625;48.784;9.336;2023-03-01T03:48:35;-1.60;99.90
37786;DHT22;23625;48.784;9.336;2023-03-01T03:51:01;-1.50;99.90
37786;DHT22;23625;48.784;9.336;2023-03-01T03:53:28;-1.50;99.90
37786;DHT22;23625;48.784;9.336;2023-03-01T03:55:54;-1.50;99.90
37786;DHT22;23625;48.784;9.336;2023-03-01T03:58:22;-1.50;99.90
37786;DHT22;23625;48.784;9.336;2023-03-01T04:00:50;-1.40;99.90
37786;DHT22;23625;48.784;9.336;2023-03-01T04:03:17;-1.40;99.90
37786;DHT22;23625;48.784;9.336;2023-03-01T04:05:44;-1.40;99.90
37786;DHT22;23625;48.784;9.336;2023-03-01T04:08:10;-1.40;99.90
37786;DHT22;23625;48.784;9.336;2023-03-01T04:10:42;-1.40;99.90
37786;DHT22;23625;48.784;9.336;2023-03-01T04:13:11;-1.40;99.90
37786;DHT22;23625;48.784;9.336;2023-03-01T04:15:38;-1.30;99.90
37786;DHT22;23625;48.784;9.336;2023-03-01T04:18:04;-1.30;99.90
37786;DHT22;23625;48.784;9.336;2023-03-01T04:20:32;-1.30;99.90
37786;DHT22;23625;48.784;9.336;2023-03-01T04:23:14;-1.30;99.90
37786;DHT22;23625;48.784;9.336;2023-03-01T04:28:32;-1.10;99.90
37786;DHT22;23625;48.784;9.336;2023-03-01T04:31:06;-1.10;99.90
37786;DHT22;23625;48.784;9.336;2023-03-01T04:33:42;-1.10;99.90
37786;DHT22;23625;48.784;9.336;2023-03-01T04:36:08;-1.10;99.90
37786;DHT22;23625;48.784;9.336;2023-03-01T04:38:35;-1.10;99.90
37786;DHT22;23625;48.784;9.336;2023-03-01T04:41:06;-1.00;99.90
37786;DHT22;23625;48.784;9.336;2023-03-01T04:43:32;-1.00;99.90
37786;DHT22;23625;48.784;9.336;2023-03-01T04:46:03;-1.10;99.90
37786;DHT22;23625;48.784;9.336;2023-03-01T04:48:30;-1.00;99.90
37786;DHT22;23625;48.784;9.336;2023-03-01T04:50:58;-0.90;99.90
37786;DHT22;23625;48.784;9.336;2023-03-01T04:53:23;-0.90;99.90
37786;DHT22;23625;48.784;9.336;2023-03-01T04:55:50;-0.90;99.90
37786;DHT22;23625;48.784;9.336;2023-03-01T04:58:16;-0.90;99.90
37786;DHT22;23625;48.784;9.336;2023-03-01T05:00:41;-0.90;99.90
37786;DHT22;23625;48.784;9.336;2023-03-01T05:03:08;-0.90;99.90
37786;DHT22;23625;48.784;9.336;2023-03-01T05:05:36;-0.90;99.90
37786;DHT22;23625;48.784;9.336;2023-03-01T05:08:05;-0.80;99.90
37786;DHT22;23625;48.784;9.336;2023-03-01T05:10:33;-0.80;99.90
37786;DHT22;23625;48.784;9.336;2023-03-01T05:13:00;-0.80;99.90
37786;DHT22;23625;48.784;9.336;2023-03-01T05:15:28;-0.90;99.90
37786;DHT22;23625;48.784;9.336;2023-03-01T05:17:56;-0.80;99.90
37786;DHT22;23625;48.784;9.336;2023-03-01T05:20:24;-0.70;99.90
37786;DHT22;23625;48.784;9.336;2023-03-01T05:22:51;-0.70;99.90
37786;DHT22;23625;48.784;9.336;2023-03-01T05:25:16;-0.70;99.90
37786;DHT22;23625;48.784;9.336;2023-03-01T05:27:42;-0.70;99.90
37786;DHT22;23625;48.784;9.336;2023-03-01T05:30:09;-0.50;99.90
37786;DHT22;23625;48.784;9.336;2023-03-01T05:32:42;-0.50;99.90
37786;DHT22;23625;48.784;9.336;2023-03-01T05:35:10;-0.50;99.90
37786;DHT22;23625;48.784;9.336;2023-03-01T05:37:39;-0.60;99.90
37786;DHT22;23625;48.784;9.336;2023-03-01T05:40:05;-0.60;99.90
37786;DHT22;23625;48.784;9.336;2023-03-01T05:42:47;-0.50;99.90
37786;DHT22;23625;48.784;9.336;2023-03-01T05:45:13;-0.60;99.90
37786;DHT22;23625;48.784;9.336;2023-03-01T05:47:41;-0.60;99.90
37786;DHT22;23625;48.784;9.336;2023-03-01T05:50:11;-0.60;99.90
37786;DHT22;23625;48.784;9.336;2023-03-01T05:52:37;-0.60;99.90
37786;DHT22;23625;48.784;9.336;2023-03-01T05:55:04;-0.60;99.90
37786;DHT22;23625;48.784;9.336;2023-03-01T05:57:29;-0.50;99.90
37786;DHT22;23625;48.784;9.336;2023-03-01T05:59:55;-0.50;99.90
37786;DHT22;23625;48.784;9.336;2023-03-01T06:02:21;-0.50;99.90
37786;DHT22;23625;48.784;9.336;2023-03-01T06:04:46;-0.50;99.90
37786;DHT22;23625;48.784;9.336;2023-03-01T06:07:12;-0.50;99.90
37786;DHT22;23625;48.784;9.336;2023-03-01T06:09:37;-0.50;99.90
37786;DHT22;23625;48.784;9.336;2023-03-01T06:12:03;-0.50;99.90
37786;DHT22;23625;48.784;9.336;2023-03-01T06:14:29;-0.40;99.90
37786;DHT22;23625;48.784;9.336;2023-03-01T06:16:54;-0.40;99.90
37786;DHT22;23625;48.784;9.336;2023-03-01T06:19:20;-0.40;99.90
37786;DHT22;23625;48.784;9.336;2023-03-01T06:21:45;-0.40;99.90
37786;DHT22;23625;48.784;9.336;2023-03-01T06:24:11;-0.40;99.90
37786;DHT22;23625;48.784;9.336;2023-03-01T06:26:36;-0.50;99.90
37786;DHT22;23625;48.784;9.336;2023-03-01T06:29:02;-0.40;99.90
37786;DHT22;23625;48.784;9.336;2023-03-01T06:31:27;-0.30;99.90
37786;DHT22;23625;48.784;9.336;2023-03-01T06:33:54;-0.30;99.90
37786;DHT22;23625;48.784;9.336;2023-03-01T06:36:19;-0.30;99.90
37786;DHT22;23625;48.784;9.336;2023-03-01T06:38:46;-0.30;99.90
37786;DHT22;23625;48.784;9.336;2023-03-01T06:41:12;-0.20;99.90
37786;DHT22;23625;48.784;9.336;2023-03-01T06:43:37;-0.20;99.90
37786;DHT22;23625;48.784;9.336;2023-03-01T06:46:06;-0.20;99.90
37786;DHT22;23625;48.784;9.336;2023-03-01T06:48:32;-0.10;99.90
37786;DHT22;23625;48.784;9.336;2023-03-01T06:50:59;-0.10;99.90
37786;DHT22;23625;48.784;9.336;2023-03-01T06:53:29;-0.10;99.90
37786;DHT22;23625;48.784;9.336;2023-03-01T06:55:56;-0.10;99.90
37786;DHT22;23625;48.784;9.336;2023-03-01T06:58:22;0.00;99.90
37786;DHT22;23625;48.784;9.336;2023-03-01T07:00:47;0.00;99.90
37786;DHT22;23625;48.784;9.336;2023-03-01T07:03:13;0.00;99.90
37786;DHT22;23625;48.784;9.336;2023-03-01T07:05:38;0.20;99.90
37786;DHT22;23625;48.784;9.336;2023-03-01T07:08:04;0.20;99.90
37786;DHT22;23625;48.784;9.336;2023-03-01T07:10:30;0.10;99.90
37786;DHT22;23625;48.784;9.336;2023-03-01T07:12:57;0.00;99.90
37786;DHT22;23625;48.784;9.336;2023-03-01T07:15:23;0.10;99.90
37786;DHT22;23625;48.784;9.336;2023-03-01T07:17:48;0.10;99.90
37786;DHT22;23625;48.784;9.336;2023-03-01T07:20:17;0.00;99.90
37786;DHT22;23625;48.784;9.336;2023-03-01T07:22:42;0.00;99.90
37786;DHT22;23625;48.784;9.336;2023-03-01T07:25:09;0.00;99.90
37786;DHT22;23625;48.784;9.336;2023-03-01T07:27:35;0.00;99.90
37786;DHT22;23625;48.784;9.336;2023-03-01T07:30:02;0.00;99.90
37786;DHT22;23625;48.784;9.336;2023-03-01T07:32:28;0.00;99.90
37786;DHT22;23625;48.784;9.336;2023-03-01T07:34:53;0.00;99.90
37786;DHT22;23625;48.784;9.336;2023-03-01T07:37:19;0.10;99.90
37786;DHT22;23625;48.784;9.336;2023-03-01T07:39:44;0.30;99.90
37786;DHT22;23625;48.784;9.336;2023-03-01T07:42:10;0.40;99.90
37786;DHT22;23625;48.784;9.336;2023-03-01T07:44:35;0.60;99.90
37786;DHT22;23625;48.784;9.336;2023-03-01T07:47:02;0.80;99.90
37786;DHT22;23625;48.784;9.336;2023-03-01T07:49:28;1.10;99.90
37786;DHT22;23625;48.784;9.336;2023-03-01T07:51:53;1.20;99.90
37786;DHT22;23625;48.784;9.336;2023-03-01T07:54:19;1.20;99.90
37786;DHT22;23625;48.784;9.336;2023-03-01T07:56:45;1.30;99.90
37786;DHT22;23625;48.784;9.336;2023-03-01T07:59:10;1.40;99.90
37786;DHT22;23625;48.784;9.336;2023-03-01T08:01:36;1.40;99.90
37786;DHT22;23625;48.784;9.336;2023-03-01T08:04:01;1.50;99.90
37786;DHT22;23625;48.784;9.336;2023-03-01T08:06:27;1.70;99.90
37786;DHT22;23625;48.784;9.336;2023-03-01T08:08:53;1.80;99.90
37786;DHT22;23625;48.784;9.336;2023-03-01T08:11:21;1.90;99.90
37786;DHT22;23625;48.784;9.336;2023-03-01T08:13:48;1.90;99.90
37786;DHT22;23625;48.784;9.336;2023-03-01T08:16:14;2.00;99.40
37786;DHT22;23625;48.784;9.336;2023-03-01T08:18:41;2.20;99.40
37786;DHT22;23625;48.784;9.336;2023-03-01T08:21:09;2.40;98.00
37786;DHT22;23625;48.784;9.336;2023-03-01T08:23:35;2.50;97.80
37786;DHT22;23625;48.784;9.336;2023-03-01T08:26:05;2.70;96.70
37786;DHT22;23625;48.784;9.336;2023-03-01T08:28:31;2.70;95.70
37786;DHT22;23625;48.784;9.336;2023-03-01T08:30:57;2.80;93.80
37786;DHT22;23625;48.784;9.336;2023-03-01T08:33:23;3.00;93.00
37786;DHT22;23625;48.784;9.336;2023-03-01T08:35:48;3.10;92.50
37786;DHT22;23625;48.784;9.336;2023-03-01T08:38:14;3.20;91.10
37786;DHT22;23625;48.784;9.336;2023-03-01T08:40:39;3.20;90.10
37786;DHT22;23625;48.784;9.336;2023-03-01T08:43:05;3.20;90.20
37786;DHT22;23625;48.784;9.336;2023-03-01T08:45:30;3.30;88.80
37786;DHT22;23625;48.784;9.336;2023-03-01T08:47:56;3.50;88.60
37786;DHT22;23625;48.784;9.336;2023-03-01T08:50:21;3.50;86.90
37786;DHT22;23625;48.784;9.336;2023-03-01T08:52:49;3.60;85.00
37786;DHT22;23625;48.784;9.336;2023-03-01T08:55:15;3.70;85.10
37786;DHT22;23625;48.784;9.336;2023-03-01T08:57:42;4.00;82.20
37786;DHT22;23625;48.784;9.336;2023-03-01T09:00:09;4.00;82.00
37786;DHT22;23625;48.784;9.336;2023-03-01T09:02:36;4.10;82.00
37786;DHT22;23625;48.784;9.336;2023-03-01T09:05:02;4.20;80.80
37786;DHT22;23625;48.784;9.336;2023-03-01T09:07:28;4.30;78.80
37786;DHT22;23625;48.784;9.336;2023-03-01T09:09:54;4.30;78.80
37786;DHT22;23625;48.784;9.336;2023-03-01T09:12:20;4.40;77.60
37786;DHT22;23625;48.784;9.336;2023-03-01T09:14:46;4.50;76.90
37786;DHT22;23625;48.784;9.336;2023-03-01T09:17:11;4.60;77.10
37786;DHT22;23625;48.784;9.336;2023-03-01T09:19:37;4.70;75.40
37786;DHT22;23625;48.784;9.336;2023-03-01T09:22:04;4.80;75.10
37786;DHT22;23625;48.784;9.336;2023-03-01T09:24:30;4.90;74.30
37786;DHT22;23625;48.784;9.336;2023-03-01T09:26:56;5.10;73.30
37786;DHT22;23625;48.784;9.336;2023-03-01T09:29:22;5.10;73.00
37786;DHT22;23625;48.784;9.336;2023-03-01T09:31:48;5.30;71.60
37786;DHT22;23625;48.784;9.336;2023-03-01T09:34:14;5.20;70.40
37786;DHT22;23625;48.784;9.336;2023-03-01T09:36:41;5.40;71.00
37786;DHT22;23625;48.784;9.336;2023-03-01T09:39:07;5.40;70.20
37786;DHT22;23625;48.784;9.336;2023-03-01T09:41:43;5.60;69.80
37786;DHT22;23625;48.784;9.336;2023-03-01T09:44:32;5.80;69.40
37786;DHT22;23625;48.784;9.336;2023-03-01T09:47:02;5.80;68.10
37786;DHT22;23625;48.784;9.336;2023-03-01T09:49:31;5.90;67.90
37786;DHT22;23625;48.784;9.336;2023-03-01T09:54:54;5.80;67.90
37786;DHT22;23625;48.784;9.336;2023-03-01T09:57:35;6.10;67.10
37786;DHT22;23625;48.784;9.336;2023-03-01T10:00:24;6.20;66.30
37786;DHT22;23625;48.784;9.336;2023-03-01T10:06:08;6.40;65.60
37786;DHT22;23625;48.784;9.336;2023-03-01T10:08:54;6.60;65.20
37786;DHT22;23625;48.784;9.336;2023-03-01T10:11:25;6.60;65.00
37786;DHT22;23625;48.784;9.336;2023-03-01T10:14:03;6.60;64.30
37786;DHT22;23625;48.784;9.336;2023-03-01T10:16:51;6.60;63.80
37786;DHT22;23625;48.784;9.336;2023-03-01T10:19:48;6.60;63.10
37786;DHT22;23625;48.784;9.336;2023-03-01T10:22:43;7.00;63.60
37786;DHT22;23625;48.784;9.336;2023-03-01T10:25:15;7.40;62.20
37786;DHT22;23625;48.784;9.336;2023-03-01T10:32:49;7.50;60.60
37786;DHT22;23625;48.784;9.336;2023-03-01T10:35:22;7.60;60.30
37786;DHT22;23625;48.784;9.336;2023-03-01T10:37:59;7.60;60.70
37786;DHT22;23625;48.784;9.336;2023-03-01T10:40:28;7.60;60.70
37786;DHT22;23625;48.784;9.336;2023-03-01T10:42:53;7.80;59.70
37786;DHT22;23625;48.784;9.336;2023-03-01T10:45:39;7.80;59.90
37786;DHT22;23625;48.784;9.336;2023-03-01T10:50:30;8.00;59.40
37786;DHT22;23625;48.784;9.336;2023-03-01T10:53:01;8.10;59.60
37786;DHT22;23625;48.784;9.336;2023-03-01T11:00:32;8.30;58.20
37786;DHT22;23625;48.784;9.336;2023-03-01T11:03:09;8.30;58.10
37786;DHT22;23625;48.784;9.336;2023-03-01T11:05:36;8.40;58.20
37786;DHT22;23625;48.784;9.336;2023-03-01T11:08:02;8.50;57.70
37786;DHT22;23625;48.784;9.336;2023-03-01T11:10:31;8.70;57.90
37786;DHT22;23625;48.784;9.336;2023-03-01T11:13:13;8.70;56.90
37786;DHT22;23625;48.784;9.336;2023-03-01T11:15:39;8.70;56.70
37786;DHT22;23625;48.784;9.336;2023-03-01T11:18:19;8.70;56.70
37786;DHT22;23625;48.784;9.336;2023-03-01T11:20:46;8.80;57.20
37786;DHT22;23625;48.784;9.336;2023-03-01T11:23:13;9.20;57.20
37786;DHT22;23625;48.784;9.336;2023-03-01T11:25:42;9.00;56.60
37786;DHT22;23625;48.784;9.336;2023-03-01T11:28:14;9.20;55.80
37786;DHT22;23625;48.784;9.336;2023-03-01T11:31:03;9.30;54.90
37786;DHT22;23625;48.784;9.336;2023-03-01T11:33:39;9.30;55.50
37786;DHT22;23625;48.784;9.336;2023-03-01T11:39:13;9.30;54.90
37786;DHT22;23625;48.784;9.336;2023-03-01T11:41:41;9.50;55.40
37786;DHT22;23625;48.784;9.336;2023-03-01T11:44:18;9.80;54.90
37786;DHT22;23625;48.784;9.336;2023-03-01T11:47:04;10.00;54.20
37786;DHT22;23625;48.784;9.336;2023-03-01T11:52:31;9.90;53.60
37786;DHT22;23625;48.784;9.336;2023-03-01T12:01:42;10.10;53.60
37786;DHT22;23625;48.784;9.336;2023-03-01T12:07:01;10.30;53.20
37786;DHT22;23625;48.784;9.336;2023-03-01T12:13:02;10.30;52.70
37786;DHT22;23625;48.784;9.336;2023-03-01T12:16:04;10.20;53.30
37786;DHT22;23625;48.784;9.336;2023-03-01T12:18:53;10.40;53.30
37786;DHT22;23625;48.784;9.336;2023-03-01T12:27:26;10.50;52.70
37786;DHT22;23625;48.784;9.336;2023-03-01T12:30:19;10.60;52.90
37786;DHT22;23625;48.784;9.336;2023-03-01T12:32:50;10.50;52.40
37786;DHT22;23625;48.784;9.336;2023-03-01T12:46:45;10.80;51.60
37786;DHT22;23625;48.784;9.336;2023-03-01T12:49:16;10.90;52.20
37786;DHT22;23625;48.784;9.336;2023-03-01T12:52:01;10.90;52.30
37786;DHT22;23625;48.784;9.336;2023-03-01T12:54:33;11.10;52.10
37786;DHT22;23625;48.784;9.336;2023-03-01T13:00:10;11.40;51.70
37786;DHT22;23625;48.784;9.336;2023-03-01T13:02:51;11.40;51.20
37786;DHT22;23625;48.784;9.336;2023-03-01T13:08:18;11.60;50.20
37786;DHT22;23625;48.784;9.336;2023-03-01T13:11:00;11.50;50.50
37786;DHT22;23625;48.784;9.336;2023-03-01T13:13:28;11.60;50.60
37786;DHT22;23625;48.784;9.336;2023-03-01T13:15:55;11.50;50.20
37786;DHT22;23625;48.784;9.336;2023-03-01T13:20:56;11.50;49.50
37786;DHT22;23625;48.784;9.336;2023-03-01T13:23:24;11.50;50.10
37786;DHT22;23625;48.784;9.336;2023-03-01T13:28:52;11.50;50.30
37786;DHT22;23625;48.784;9.336;2023-03-01T13:33:50;11.80;50.30
37786;DHT22;23625;48.784;9.336;2023-03-01T13:53:29;11.90;49.30
37786;DHT22;23625;48.784;9.336;2023-03-01T14:00:46;12.00;50.10
37786;DHT22;23625;48.784;9.336;2023-03-01T14:03:17;11.90;49.40
37786;DHT22;23625;48.784;9.336;2023-03-01T14:06:07;11.60;49.50
37786;DHT22;23625;48.784;9.336;2023-03-01T14:08:37;11.60;49.80
37786;DHT22;23625;48.784;9.336;2023-03-01T14:19:15;11.60;50.00
37786;DHT22;23625;48.784;9.336;2023-03-01T14:21:45;11.60;50.30
37786;DHT22;23625;48.784;9.336;2023-03-01T14:24:20;11.40;50.30
37786;DHT22;23625;48.784;9.336;2023-03-01T14:26:46;11.20;50.50
37786;DHT22;23625;48.784;9.336;2023-03-01T14:29:35;11.10;51.10
37786;DHT22;23625;48.784;9.336;2023-03-01T14:32:21;11.10;51.10
37786;DHT22;23625;48.784;9.336;2023-03-01T14:34:49;11.00;51.60
37786;DHT22;23625;48.784;9.336;2023-03-01T14:37:31;11.10;51.60
37786;DHT22;23625;48.784;9.336;2023-03-01T14:39:58;11.20;51.40
37786;DHT22;23625;48.784;9.336;2023-03-01T14:42:30;11.20;51.10
37786;DHT22;23625;48.784;9.336;2023-03-01T14:44:57;11.20;51.30
37786;DHT22;23625;48.784;9.336;2023-03-01T14:47:29;10.80;51.60
37786;DHT22;23625;48.784;9.336;2023-03-01T14:50:09;10.70;52.10
37786;DHT22;23625;48.784;9.336;2023-03-01T14:52:42;10.80;52.10
37786;DHT22;23625;48.784;9.336;2023-03-01T14:55:17;10.50;52.30
37786;DHT22;23625;48.784;9.336;2023-03-01T14:57:45;10.40;52.70
37786;DHT22;23625;48.784;9.336;2023-03-01T15:00:18;10.20;53.00
37786;DHT22;23625;48.784;9.336;2023-03-01T15:02:47;10.30;53.20
37786;DHT22;23625;48.784;9.336;2023-03-01T15:05:15;10.30;53.30
37786;DHT22;23625;48.784;9.336;2023-03-01T15:07:44;10.20;53.50
37786;DHT22;23625;48.784;9.336;2023-03-01T15:10:29;10.30;53.60
37786;DHT22;23625;48.784;9.336;2023-03-01T15:12:55;10.50;53.50
37786;DHT22;23625;48.784;9.336;2023-03-01T15:15:33;10.20;53.30
37786;DHT22;23625;48.784;9.336;2023-03-01T15:18:01;10.00;53.60
37786;DHT22;23625;48.784;9.336;2023-03-01T15:20:28;10.00;54.20
37786;DHT22;23625;48.784;9.336;2023-03-01T15:22:57;9.80;53.70
37786;DHT22;23625;48.784;9.336;2023-03-01T15:25:25;9.80;54.30
37786;DHT22;23625;48.784;9.336;2023-03-01T15:27:53;9.70;54.50
37786;DHT22;23625;48.784;9.336;2023-03-01T15:30:28;9.50;54.50
37786;DHT22;23625;48.784;9.336;2023-03-01T15:35:50;9.40;55.00
37786;DHT22;23625;48.784;9.336;2023-03-01T15:38:50;9.30;55.40
37786;DHT22;23625;48.784;9.336;2023-03-01T15:41:31;9.20;55.50
37786;DHT22;23625;48.784;9.336;2023-03-01T15:43:58;9.00;55.70
37786;DHT22;23625;48.784;9.336;2023-03-01T15:46:35;9.00;56.10
37786;DHT22;23625;48.784;9.336;2023-03-01T15:49:40;8.90;56.50
37786;DHT22;23625;48.784;9.336;2023-03-01T15:52:12;8.80;56.40
37786;DHT22;23625;48.784;9.336;2023-03-01T15:54:39;8.80;57.00
37786;DHT22;23625;48.784;9.336;2023-03-01T15:57:12;8.70;57.30
37786;DHT22;23625;48.784;9.336;2023-03-01T15:59:39;8.70;57.20
37786;DHT22;23625;48.784;9.336;2023-03-01T16:02:09;8.60;57.50
37786;DHT22;23625;48.784;9.336;2023-03-01T16:04:38;8.50;57.40
37786;DHT22;23625;48.784;9.336;2023-03-01T16:07:04;8.50;57.60
37786;DHT22;23625;48.784;9.336;2023-03-01T16:09:31;8.40;57.80
37786;DHT22;23625;48.784;9.336;2023-03-01T16:11:56;8.30;57.80
37786;DHT22;23625;48.784;9.336;2023-03-01T16:14:22;8.20;57.70
37786;DHT22;23625;48.784;9.336;2023-03-01T16:16:48;8.10;58.00
37786;DHT22;23625;48.784;9.336;2023-03-01T16:19:15;8.10;58.00
37786;DHT22;23625;48.784;9.336;2023-03-01T16:21:41;8.00;58.30
37786;DHT22;23625;48.784;9.336;2023-03-01T16:24:08;7.90;58.40
37786;DHT22;23625;48.784;9.336;2023-03-01T16:26:35;7.80;58.50
37786;DHT22;23625;48.784;9.336;2023-03-01T16:29:01;7.70;58.70
37786;DHT22;23625;48.784;9.336;2023-03-01T16:31:27;7.70;58.90
37786;DHT22;23625;48.784;9.336;2023-03-01T16:33:55;7.60;59.10
37786;DHT22;23625;48.784;9.336;2023-03-01T16:36:21;7.60;59.30
37786;DHT22;23625;48.784;9.336;2023-03-01T16:38:49;7.50;59.30
37786;DHT22;23625;48.784;9.336;2023-03-01T16:41:17;7.50;59.40
37786;DHT22;23625;48.784;9.336;2023-03-01T16:43:43;7.50;59.60
37786;DHT22;23625;48.784;9.336;2023-03-01T16:46:24;7.40;59.70
37786;DHT22;23625;48.784;9.336;2023-03-01T16:48:51;7.50;59.70
37786;DHT22;23625;48.784;9.336;2023-03-01T16:51:18;7.30;59.70
37786;DHT22;23625;48.784;9.336;2023-03-01T16:53:44;7.20;60.10
37786;DHT22;23625;48.784;9.336;2023-03-01T16:56:11;7.20;60.40
37786;DHT22;23625;48.784;9.336;2023-03-01T16:58:38;7.00;60.70
37786;DHT22;23625;48.784;9.336;2023-03-01T17:01:06;7.00;60.90
37786;DHT22;23625;48.784;9.336;2023-03-01T17:03:32;6.90;61.10
37786;DHT22;23625;48.784;9.336;2023-03-01T17:06:02;6.90;61.40
37786;DHT22;23625;48.784;9.336;2023-03-01T17:08:27;6.80;61.70
37786;DHT22;23625;48.784;9.336;2023-03-01T17:10:53;6.70;61.90
37786;DHT22;23625;48.784;9.336;2023-03-01T17:13:18;6.60;62.70
37786;DHT22;23625;48.784;9.336;2023-03-01T17:15:44;6.50;63.20
37786;DHT22;23625;48.784;9.336;2023-03-01T17:18:09;6.30;64.00
37786;DHT22;23625;48.784;9.336;2023-03-01T17:20:35;6.20;64.70
37786;DHT22;23625;48.784;9.336;2023-03-01T17:23:02;6.10;65.10
37786;DHT22;23625;48.784;9.336;2023-03-01T17:25:28;5.90;65.60
37786;DHT22;23625;48.784;9.336;2023-03-01T17:27:53;5.70;66.10
37786;DHT22;23625;48.784;9.336;2023-03-01T17:30:19;5.60;66.90
37786;DHT22;23625;48.784;9.336;2023-03-01T17:32:45;5.50;67.30
37786;DHT22;23625;48.784;9.336;2023-03-01T17:35:10;5.30;68.00
37786;DHT22;23625;48.784;9.336;2023-03-01T17:37:37;5.10;69.40